Time;durP1;ratioP1;P1;durP2;ratioP2;P2;SDS_P1;SDS_P2;PMS_P1;PMS_P2;Temp;Humidity;BMP_temperature;BMP_pressure;BME280_temperature;BME280_humidity;BME280_pressure;Samples;Min_cycle;Max_cycle;Signal;HPM_P1;HPM_P2
2022/02/19 00:02:00;;;;;;;4.32;1.50;;;24.90;64.00;;;;;;4132511;28;20044;-63
2022/02/19 00:04:22;;;;;;;4.75;1.55;;;24.90;64.00;;;;;;4143939;28;20049;-63
2022/02/19 00:06:45;;;;;;;3.95;1.75;;;25.00;64.00;;;;;;4136039;28;20036;-63
2022/02/19 00:09:07;;;;;;;4.55;1.60;;;24.90;63.80;;;;;;4136784;28;20188;-63
2022/02/19 00:11:29;;;;;;;4.40;1.50;;;24.90;63.80;;;;;;4144353;28;20102;-63
2022/02/19 00:13:52;;;;;;;2.95;1.38;;;24.90;63.80;;;;;;4135827;28;20066;-63
2022/02/19 00:16:14;;;;;;;4.57;1.63;;;24.90;64.00;;;;;;4142456;28;20036;-63
2022/02/19 00:18:37;;;;;;;3.33;1.23;;;24.90;63.70;;;;;;4143581;28;20414;-62
2022/02/19 00:20:59;;;;;;;3.63;1.30;;;24.80;64.00;;;;;;4145450;28;20047;-62
2022/02/19 00:23:22;;;;;;;11.80;1.50;;;24.80;64.00;;;;;;4126959;28;20424;-64
2022/02/19 00:25:44;;;;;;;3.83;1.25;;;24.90;64.10;;;;;;4147052;28;20037;-62
2022/02/19 00:28:07;;;;;;;2.75;1.08;;;24.90;64.10;;;;;;4147476;28;20044;-65
2022/02/19 00:30:29;;;;;;;2.38;1.20;;;24.80;64.10;;;;;;4142372;28;20392;-64
2022/02/19 00:32:52;;;;;;;5.25;1.50;;;24.90;64.70;;;;;;4142929;28;21121;-63
2022/02/19 00:35:14;;;;;;;2.88;1.15;;;24.90;64.30;;;;;;4150844;28;20455;-64
2022/02/19 00:37:37;;;;;;;5.32;1.13;;;24.80;64.30;;;;;;4142840;28;20112;-65
2022/02/19 00:40:00;;;;;;;5.90;1.70;;;24.90;64.30;;;;;;4140581;28;20048;-64
2022/02/19 00:42:23;;;;;;;4.25;1.52;;;24.90;64.30;;;;;;4150757;28;20037;-65
2022/02/19 00:44:45;;;;;;;4.45;1.40;;;24.90;64.40;;;;;;4127800;28;20473;-63
2022/02/19 00:47:08;;;;;;;3.75;1.52;;;24.90;64.40;;;;;;4143925;28;20094;-61
2022/02/19 00:49:30;;;;;;;4.65;1.58;;;24.90;64.50;;;;;;4155837;28;20064;-63
2022/02/19 00:51:53;;;;;;;4.55;1.48;;;24.90;64.50;;;;;;4149141;28;20685;-61
2022/02/19 00:54:15;;;;;;;6.50;1.52;;;24.90;64.40;;;;;;4149344;28;20045;-60
2022/02/19 00:56:37;;;;;;;6.95;1.65;;;24.90;64.00;;;;;;4156530;28;20044;-61
2022/02/19 00:59:00;;;;;;;4.47;1.50;;;24.90;63.70;;;;;;4150518;28;20129;-65
2022/02/19 01:01:23;;;;;;;8.38;1.85;;;24.80;63.50;;;;;;4142114;28;20072;-65
2022/02/19 01:03:47;;;;;;;6.25;2.17;;;24.80;64.00;;;;;;4148118;28;20036;-65
2022/02/19 01:06:09;;;;;;;10.45;1.75;;;24.80;64.20;;;;;;4146153;28;20044;-62
2022/02/19 01:08:32;;;;;;;7.95;2.53;;;24.80;64.20;;;;;;4142845;28;20138;-63
2022/02/19 01:10:54;;;;;;;7.35;1.88;;;24.80;64.20;;;;;;4148917;28;20048;-63
2022/02/19 01:13:17;;;;;;;4.75;1.50;;;24.80;64.20;;;;;;4148373;28;20486;-67
2022/02/19 01:15:41;;;;;;;3.22;1.35;;;24.90;64.30;;;;;;4142709;28;20043;-65
2022/02/19 01:18:04;;;;;;;13.95;1.65;;;24.90;64.40;;;;;;4149983;28;21013;-63
2022/02/19 01:20:27;;;;;;;3.40;1.38;;;24.80;64.30;;;;;;4146724;28;20044;-66
2022/02/19 01:22:49;;;;;;;5.35;1.10;;;24.90;64.40;;;;;;4143396;28;20040;-68
2022/02/19 01:25:12;;;;;;;3.72;1.30;;;24.90;64.40;;;;;;4148691;28;20122;-69
2022/02/19 01:27:35;;;;;;;3.22;1.40;;;24.80;64.40;;;;;;4147315;28;20050;-69
2022/02/19 01:29:58;;;;;;;3.47;1.65;;;24.90;64.40;;;;;;4142890;28;20108;-59
2022/02/19 01:32:20;;;;;;;5.75;1.70;;;24.90;64.40;;;;;;4148855;28;20075;-64
2022/02/19 01:34:43;;;;;;;8.98;2.03;;;24.90;64.60;;;;;;4149029;28;20044;-62
2022/02/19 01:37:05;;;;;;;2.83;1.10;;;24.90;64.60;;;;;;4141939;28;20040;-66
2022/02/19 01:39:29;;;;;;;3.95;1.45;;;24.90;64.70;;;;;;4146477;28;20048;-65
2022/02/19 01:41:51;;;;;;;4.18;1.67;;;24.90;64.60;;;;;;4150470;28;20073;-67
2022/02/19 01:44:15;;;;;;;6.05;1.20;;;24.90;64.80;;;;;;4145795;28;20041;-64
2022/02/19 01:46:38;;;;;;;11.57;1.65;;;24.90;64.50;;;;;;4148848;28;20045;-66
2022/02/19 01:49:00;;;;;;;16.15;2.28;;;24.90;64.80;;;;;;4151968;28;20555;-63
2022/02/19 01:51:23;;;;;;;8.48;1.98;;;24.90;64.90;;;;;;4147176;28;20914;-63
2022/02/19 01:53:46;;;;;;;9.90;2.17;;;24.90;64.40;;;;;;4148051;28;20943;-63
2022/02/19 01:56:08;;;;;;;4.97;1.42;;;24.90;64.20;;;;;;4156090;28;20059;-65
2022/02/19 01:58:31;;;;;;;9.60;1.60;;;24.90;64.10;;;;;;4146574;28;20044;-64
2022/02/19 02:00:53;;;;;;;7.65;2.00;;;24.90;64.10;;;;;;4143504;28;20032;-65
2022/02/19 02:03:16;;;;;;;10.90;2.15;;;24.90;64.20;;;;;;4149569;28;20583;-64
2022/02/19 02:05:38;;;;;;;4.90;1.70;;;24.90;64.30;;;;;;4140734;28;20202;-63
2022/02/19 02:08:06;;;;;;;7.18;1.92;;;24.90;64.50;;;;;;4137942;28;20036;-63
2022/02/19 02:10:29;;;;;;;10.52;2.42;;;24.90;64.50;;;;;;4147942;28;20043;-63
2022/02/19 02:12:51;;;;;;;21.45;2.10;;;24.90;64.60;;;;;;4139144;28;20506;-62
2022/02/19 02:15:28;;;;;;;5.38;1.98;;;24.90;64.70;;;;;;4140973;28;20047;-58
2022/02/19 02:17:51;;;;;;;7.45;2.00;;;25.00;64.70;;;;;;4136998;28;20095;-59
2022/02/19 02:20:13;;;;;;;6.95;2.00;;;25.00;64.70;;;;;;4141795;28;20160;-59
2022/02/19 02:22:36;;;;;;;7.43;2.10;;;25.00;64.70;;;;;;4143106;28;20464;-61
2022/02/19 02:24:58;;;;;;;8.52;2.55;;;25.00;64.80;;;;;;4138305;28;20716;-62
2022/02/19 02:27:21;;;;;;;8.80;2.00;;;25.10;64.80;;;;;;4140106;28;21085;-61
2022/02/19 02:29:48;;;;;;;4.30;1.70;;;25.10;64.70;;;;;;4149910;28;20083;-60
2022/02/19 02:32:10;;;;;;;5.90;2.15;;;25.10;64.70;;;;;;4129967;28;20075;-63
2022/02/19 02:34:33;;;;;;;11.57;2.47;;;25.10;64.70;;;;;;4152110;28;20045;-64
2022/02/19 02:36:55;;;;;;;10.50;2.85;;;25.10;64.80;;;;;;4154052;28;20044;-62
2022/02/19 02:39:18;;;;;;;13.45;2.60;;;25.10;64.60;;;;;;4141995;28;20821;-64
2022/02/19 02:41:40;;;;;;;9.27;2.30;;;25.20;64.80;;;;;;4149849;28;20110;-60
2022/02/19 02:44:03;;;;;;;17.30;2.65;;;25.20;64.80;;;;;;4150804;28;20913;-63
2022/02/19 02:46:25;;;;;;;10.27;2.83;;;25.20;64.80;;;;;;4142430;28;20079;-63
2022/02/19 02:48:48;;;;;;;10.00;2.45;;;25.20;64.60;;;;;;4142155;28;20068;-74
2022/02/19 02:51:10;;;;;;;8.73;2.40;;;25.20;64.40;;;;;;4144256;28;20053;-69
2022/02/19 02:53:33;;;;;;;5.93;1.98;;;25.30;64.50;;;;;;4145907;28;20055;-70
2022/02/19 02:55:55;;;;;;;8.05;1.95;;;25.30;64.50;;;;;;4145307;28;20161;-71
2022/02/19 02:58:18;;;;;;;4.63;1.52;;;25.30;64.50;;;;;;4152879;28;20968;-66
2022/02/19 03:00:40;;;;;;;6.20;1.38;;;25.30;64.50;;;;;;4147447;28;21235;-66
2022/02/19 03:03:03;;;;;;;4.25;2.00;;;25.40;64.60;;;;;;4145872;28;20040;-65
2022/02/19 03:05:25;;;;;;;3.50;1.08;;;25.40;64.50;;;;;;4152096;28;20396;-66
2022/02/19 03:07:48;;;;;;;3.95;1.27;;;25.40;64.40;;;;;;4143896;28;20032;-71
2022/02/19 03:10:13;;;;;;;2.33;1.13;;;25.50;64.40;;;;;;4141065;28;20676;-71
2022/02/19 03:12:36;;;;;;;2.65;1.17;;;25.50;64.30;;;;;;4145474;28;20064;-65
2022/02/19 03:14:58;;;;;;;2.58;1.10;;;25.60;64.30;;;;;;4143497;28;20036;-68
2022/02/19 03:17:21;;;;;;;3.13;1.10;;;25.60;64.30;;;;;;4143815;28;21516;-72
2022/02/19 03:19:45;;;;;;;6.00;1.60;;;25.60;64.20;;;;;;4152862;28;20047;-69
2022/02/19 03:22:07;;;;;;;4.93;1.13;;;25.70;64.20;;;;;;4148885;28;20853;-66
2022/02/19 03:24:29;;;;;;;5.18;0.98;;;25.70;64.20;;;;;;4151068;28;20041;-69
2022/02/19 03:26:52;;;;;;;2.88;1.08;;;25.70;64.10;;;;;;4152749;28;20487;-67
2022/02/19 03:29:15;;;;;;;2.83;1.20;;;25.70;64.10;;;;;;4144415;28;21017;-64
2022/02/19 03:31:37;;;;;;;4.78;1.45;;;25.80;64.10;;;;;;4143223;28;20051;-72
2022/02/19 03:34:00;;;;;;;1.85;0.80;;;25.80;63.90;;;;;;4155295;28;20036;-68
2022/02/19 03:36:22;;;;;;;3.97;1.30;;;25.90;64.00;;;;;;4137049;28;20175;-66
2022/02/19 03:38:45;;;;;;;5.82;1.50;;;25.90;63.80;;;;;;4132169;28;20675;-65
2022/02/19 03:41:07;;;;;;;5.13;1.90;;;25.90;63.50;;;;;;4152839;28;20028;-68
2022/02/19 03:43:29;;;;;;;4.95;2.08;;;25.90;63.30;;;;;;4145369;28;20043;-66
2022/02/19 03:45:53;;;;;;;15.77;2.60;;;25.90;63.20;;;;;;4142241;28;20044;-66
2022/02/19 03:48:15;;;;;;;;;;;25.90;63.00;;;;;;4150496;28;20053;-66
2022/02/19 03:50:38;;;;;;;5.20;2.25;;;25.90;62.90;;;;;;4141531;28;20481;-67
2022/02/19 03:53:00;;;;;;;8.32;1.85;;;25.90;62.90;;;;;;4144245;28;20394;-67
2022/02/19 03:55:23;;;;;;;8.93;2.10;;;25.90;62.90;;;;;;4149128;28;20067;-67
2022/02/19 03:57:45;;;;;;;4.78;1.65;;;25.90;62.90;;;;;;4142090;28;20036;-68
2022/02/19 04:00:11;;;;;;;5.45;1.90;;;25.90;62.80;;;;;;4140322;28;20025;-66
2022/02/19 04:02:38;;;;;;;5.22;1.60;;;25.90;62.80;;;;;;4145889;28;20894;-67
2022/02/19 04:05:00;;;;;;;3.92;1.83;;;25.80;62.70;;;;;;4120716;28;20048;-66
2022/02/19 04:07:23;;;;;;;3.95;1.55;;;25.90;62.70;;;;;;4131070;28;21457;-66
2022/02/19 04:09:45;;;;;;;6.38;1.80;;;25.90;62.70;;;;;;4124896;28;20125;-67
2022/02/19 04:12:09;;;;;;;5.03;1.88;;;25.90;63.10;;;;;;4132604;28;20040;-67
2022/02/19 04:14:32;;;;;;;3.90;1.52;;;25.80;63.30;;;;;;4140972;28;21683;-67
2022/02/19 04:16:55;;;;;;;5.45;1.60;;;25.80;62.60;;;;;;4145358;28;20055;-68
2022/02/19 04:19:17;;;;;;;2.87;1.50;;;25.80;62.70;;;;;;4143502;28;20036;-66
2022/02/19 04:21:40;;;;;;;3.38;1.58;;;25.80;62.70;;;;;;4144156;28;21543;-66
2022/02/19 04:24:02;;;;;;;3.17;1.67;;;25.80;62.70;;;;;;4151078;28;20049;-66
2022/02/19 04:26:25;;;;;;;5.72;1.83;;;25.80;62.70;;;;;;4142369;28;20182;-65
2022/02/19 04:28:48;;;;;;;2.97;1.35;;;25.80;62.80;;;;;;4145788;28;20044;-65
2022/02/19 04:31:10;;;;;;;2.55;1.10;;;25.80;62.70;;;;;;4136977;28;20794;-65
2022/02/19 04:33:33;;;;;;;2.72;0.85;;;25.80;62.70;;;;;;4142594;28;20037;-66
2022/02/19 04:35:55;;;;;;;2.75;1.10;;;25.80;62.70;;;;;;4143426;28;20043;-65
2022/02/19 04:38:23;;;;;;;4.65;1.40;;;25.80;62.80;;;;;;4143501;28;20035;-66
2022/02/19 04:40:45;;;;;;;3.63;1.35;;;25.80;62.70;;;;;;4141845;28;20679;-65
2022/02/19 04:43:07;;;;;;;3.05;1.20;;;25.80;62.80;;;;;;4147667;28;20024;-66
2022/02/19 04:45:30;;;;;;;3.25;1.23;;;25.80;62.80;;;;;;4146509;28;20131;-66
2022/02/19 04:47:53;;;;;;;4.28;1.77;;;25.80;62.70;;;;;;4140876;28;20115;-66
2022/02/19 04:50:15;;;;;;;3.80;1.10;;;25.80;62.70;;;;;;4142685;28;21639;-66
2022/02/19 04:52:39;;;;;;;3.28;1.17;;;25.80;62.30;;;;;;4147189;28;20085;-66
2022/02/19 04:55:01;;;;;;;2.85;1.15;;;25.80;62.70;;;;;;4140740;28;20693;-66
2022/02/19 04:57:24;;;;;;;3.85;1.35;;;25.80;62.70;;;;;;4141834;28;20171;-66
2022/02/19 04:59:46;;;;;;;5.55;1.08;;;25.80;62.70;;;;;;4147257;28;20482;-66
2022/02/19 05:02:09;;;;;;;3.17;1.30;;;25.80;62.80;;;;;;4141870;28;20082;-66
2022/02/19 05:04:31;;;;;;;4.53;1.63;;;25.80;62.80;;;;;;4143019;28;21698;-66
2022/02/19 05:06:54;;;;;;;3.45;1.15;;;25.80;62.80;;;;;;4150917;28;20858;-66
2022/02/19 05:09:17;;;;;;;3.00;1.20;;;25.80;62.80;;;;;;4142134;28;20051;-66
2022/02/19 05:11:39;;;;;;;3.90;1.30;;;25.80;62.80;;;;;;4133522;28;20041;-66
2022/02/19 05:14:02;;;;;;;4.80;1.33;;;25.80;62.80;;;;;;4143411;28;20103;-66
2022/02/19 05:16:24;;;;;;;4.70;1.50;;;25.80;62.80;;;;;;4134799;28;20046;-65
2022/02/19 05:18:47;;;;;;;5.18;1.38;;;25.80;62.70;;;;;;4136744;28;20389;-66
2022/02/19 05:21:09;;;;;;;4.38;1.23;;;25.70;62.70;;;;;;4145572;28;20062;-66
2022/02/19 05:23:32;;;;;;;4.00;1.50;;;25.80;62.70;;;;;;4137269;28;20101;-66
2022/02/19 05:25:54;;;;;;;5.10;1.70;;;25.80;62.70;;;;;;4138205;28;20395;-66
2022/02/19 05:28:17;;;;;;;4.57;1.40;;;25.80;62.70;;;;;;4141447;28;20044;-65
2022/02/19 05:30:40;;;;;;;4.50;1.83;;;25.70;62.70;;;;;;4139753;28;20048;-66
2022/02/19 05:33:02;;;;;;;5.72;1.77;;;25.80;62.70;;;;;;4138775;28;20084;-66
2022/02/19 05:35:25;;;;;;;6.05;1.83;;;25.70;62.70;;;;;;4148781;28;20101;-66
2022/02/19 05:37:47;;;;;;;5.38;1.80;;;25.70;62.70;;;;;;4143803;28;20058;-65
2022/02/19 05:40:10;;;;;;;5.63;1.70;;;25.70;62.70;;;;;;4127604;28;20488;-65
2022/02/19 05:42:33;;;;;;;4.53;1.73;;;25.70;62.70;;;;;;4146176;28;20052;-65
2022/02/19 05:44:56;;;;;;;3.75;1.73;;;25.70;62.70;;;;;;4141168;28;20044;-65
2022/02/19 05:47:20;;;;;;;3.58;1.52;;;25.70;62.70;;;;;;4140640;28;20046;-65
2022/02/19 05:49:42;;;;;;;4.85;1.75;;;25.70;62.70;;;;;;4149872;28;20060;-66
2022/02/19 05:52:05;;;;;;;5.00;1.98;;;25.70;62.70;;;;;;4144734;28;20033;-66
2022/02/19 05:54:27;;;;;;;3.63;1.50;;;25.70;62.70;;;;;;4140580;28;20040;-66
2022/02/19 05:56:50;;;;;;;3.53;1.33;;;25.70;62.70;;;;;;4146176;28;21882;-66
2022/02/19 05:59:12;;;;;;;5.95;1.90;;;25.70;62.70;;;;;;4148288;28;20365;-67
2022/02/19 06:01:35;;;;;;;4.70;1.42;;;25.70;62.80;;;;;;4145981;28;20063;-66
2022/02/19 06:03:57;;;;;;;4.78;1.50;;;25.70;62.80;;;;;;4149752;28;20774;-65
2022/02/19 06:06:20;;;;;;;4.85;1.92;;;25.70;62.80;;;;;;4144212;28;20484;-66
2022/02/19 06:08:42;;;;;;;4.25;1.85;;;25.70;62.80;;;;;;4138487;28;20571;-63
2022/02/19 06:11:05;;;;;;;7.60;2.20;;;25.70;62.80;;;;;;4126068;28;20040;-65
2022/02/19 06:13:27;;;;;;;4.75;1.77;;;25.70;62.80;;;;;;4143403;28;20064;-66
2022/02/19 06:15:50;;;;;;;6.03;1.75;;;25.70;63.50;;;;;;4145228;28;20483;-65
2022/02/19 06:18:12;;;;;;;6.30;1.95;;;25.70;62.80;;;;;;4148885;28;20072;-64
2022/02/19 06:20:35;;;;;;;5.03;1.70;;;25.70;62.80;;;;;;4154848;28;20028;-65
2022/02/19 06:22:59;;;;;;;7.25;2.08;;;25.70;62.80;;;;;;4145853;28;20040;-65
2022/02/19 06:25:22;;;;;;;4.50;1.67;;;25.70;62.80;;;;;;4134180;28;21677;-65
2022/02/19 06:27:47;;;;;;;5.40;1.85;;;25.70;62.80;;;;;;4153024;28;20041;-65
2022/02/19 06:30:12;;;;;;;6.47;1.83;;;25.70;62.80;;;;;;4146508;28;20060;-65
2022/02/19 06:32:34;;;;;;;3.70;1.35;;;25.70;62.80;;;;;;4149900;28;20153;-65
2022/02/19 06:34:57;;;;;;;5.47;1.55;;;25.70;62.90;;;;;;4147854;28;20854;-66
2022/02/19 06:37:19;;;;;;;3.40;1.23;;;25.70;62.80;;;;;;4145506;28;20157;-66
2022/02/19 06:39:41;;;;;;;2.75;1.25;;;25.70;62.70;;;;;;4149309;28;20039;-66
2022/02/19 06:42:05;;;;;;;5.05;1.70;;;25.70;62.70;;;;;;4147621;28;20037;-66
2022/02/19 06:44:27;;;;;;;3.30;1.17;;;25.70;62.70;;;;;;4129908;28;20048;-66
2022/02/19 06:46:50;;;;;;;6.18;1.63;;;25.70;62.70;;;;;;4151620;28;20040;-65
2022/02/19 06:49:12;;;;;;;4.03;1.42;;;25.70;62.60;;;;;;4153342;28;20049;-65
2022/02/19 06:51:34;;;;;;;4.90;1.27;;;25.70;62.70;;;;;;4132431;28;20037;-66
2022/02/19 06:53:57;;;;;;;6.47;1.55;;;25.70;62.60;;;;;;4149566;28;21669;-65
2022/02/19 06:56:20;;;;;;;3.42;1.45;;;25.70;62.60;;;;;;4154964;28;20045;-65
2022/02/19 06:58:42;;;;;;;2.83;1.10;;;25.70;62.60;;;;;;4149102;28;20515;-65
2022/02/19 07:01:05;;;;;;;2.58;1.40;;;25.70;62.60;;;;;;4133391;28;20041;-66
2022/02/19 07:03:27;;;;;;;2.28;1.20;;;25.70;62.60;;;;;;4153928;28;20082;-66
2022/02/19 07:05:52;;;;;;;3.83;1.30;;;25.70;62.60;;;;;;4113158;28;20145;-65
2022/02/19 07:08:14;;;;;;;4.07;1.42;;;25.70;62.60;;;;;;4113020;28;20053;-66
2022/02/19 07:10:37;;;;;;;3.95;1.23;;;25.70;62.60;;;;;;4113707;28;20045;-65
2022/02/19 07:13:00;;;;;;;4.38;1.30;;;25.70;62.60;;;;;;4106634;28;20217;-65
2022/02/19 07:15:22;;;;;;;3.92;1.50;;;25.70;62.50;;;;;;4108803;28;20109;-66
2022/02/19 07:17:52;;;;;;;2.70;1.33;;;25.70;62.50;;;;;;4120880;28;20041;-65
2022/02/19 07:20:15;;;;;;;4.90;1.27;;;25.70;62.50;;;;;;4117142;28;20029;-65
2022/02/19 07:22:37;;;;;;;4.03;1.50;;;25.60;62.50;;;;;;4122182;28;20386;-65
2022/02/19 07:25:00;;;;;;;3.28;0.93;;;25.60;62.50;;;;;;4114514;28;20283;-66
2022/02/19 07:27:22;;;;;;;5.05;1.63;;;25.60;62.40;;;;;;4113792;28;20045;-65
2022/02/19 07:29:45;;;;;;;5.35;1.70;;;25.60;62.50;;;;;;4119437;28;20604;-66
2022/02/19 07:32:10;;;;;;;3.58;1.55;;;25.60;62.50;;;;;;4119225;28;21705;-65
2022/02/19 07:34:33;;;;;;;4.97;1.98;;;25.60;62.40;;;;;;4116638;28;20038;-66
2022/02/19 07:36:55;;;;;;;3.13;1.07;;;25.60;62.40;;;;;;4123339;28;20041;-66
2022/02/19 07:39:18;;;;;;;4.22;1.60;;;25.60;62.40;;;;;;4117166;28;20519;-66
2022/02/19 07:41:40;;;;;;;5.57;1.48;;;25.60;62.40;;;;;;4112308;28;20559;-66
2022/02/19 07:44:04;;;;;;;4.70;1.45;;;25.60;62.40;;;;;;4118427;28;20064;-65
2022/02/19 07:46:26;;;;;;;2.27;1.20;;;25.50;62.30;;;;;;4114974;28;20675;-66
2022/02/19 07:48:49;;;;;;;5.53;1.67;;;25.60;62.40;;;;;;4103783;28;20420;-72
2022/02/19 07:59:13;;;;;;;4.20;1.08;;;25.60;64.20;;;;;;4108146;28;20079;-67
2022/02/19 08:01:36;;;;;;;4.63;1.23;;;25.70;64.40;;;;;;4113618;28;20489;-67
2022/02/19 08:03:58;;;;;;;3.53;1.30;;;25.70;64.60;;;;;;4121176;28;20131;-66
2022/02/19 08:06:21;;;;;;;4.43;1.70;;;25.70;64.60;;;;;;4140138;28;20059;-66
2022/02/19 08:08:44;;;;;;;4.97;2.47;;;25.70;63.80;;;;;;4142276;28;20083;-66
2022/02/19 08:11:06;;;;;;;5.80;2.88;;;25.70;63.60;;;;;;4147468;28;20044;-67
2022/02/19 08:13:29;;;;;;;7.00;3.28;;;25.70;63.50;;;;;;4140929;28;20044;-67
2022/02/19 08:15:52;;;;;;;6.18;3.50;;;25.70;63.50;;;;;;4140269;28;20040;-65
2022/02/19 08:18:15;;;;;;;7.88;4.05;;;25.70;63.50;;;;;;4146889;28;20044;-70
2022/02/19 08:20:40;;;;;;;7.03;3.50;;;25.70;63.80;;;;;;4137663;28;20040;-74
2022/02/19 08:23:05;;;;;;;5.45;2.70;;;25.70;64.20;;;;;;4142587;28;21203;-66
2022/02/19 08:25:28;;;;;;;4.57;2.60;;;25.70;64.60;;;;;;4140374;28;20824;-72
2022/02/19 08:27:51;;;;;;;4.72;2.53;;;25.80;64.80;;;;;;4120049;28;20037;-70
2022/02/19 08:30:16;;;;;;;6.63;2.40;;;25.80;64.80;;;;;;4142617;28;21766;-70
2022/02/19 08:32:38;;;;;;;3.33;2.13;;;25.80;65.00;;;;;;4134505;28;21253;-73
2022/02/19 08:35:01;;;;;;;3.67;2.03;;;25.80;64.80;;;;;;4129887;28;20036;-77
2022/02/19 08:37:24;;;;;;;3.42;2.08;;;25.80;64.80;;;;;;4135943;28;20491;-74
2022/02/19 08:39:46;;;;;;;3.83;2.40;;;25.90;65.00;;;;;;4128926;28;20064;-70
2022/02/19 08:42:09;;;;;;;2.78;1.55;;;25.90;65.20;;;;;;4132306;28;20574;-70
2022/02/19 08:44:31;;;;;;;3.58;2.00;;;25.90;65.10;;;;;;4145270;28;20043;-74
2022/02/19 08:46:54;;;;;;;3.92;1.92;;;26.00;65.10;;;;;;4140258;28;20064;-80
2022/02/19 08:49:17;;;;;;;3.40;1.85;;;26.00;65.10;;;;;;4136439;28;20056;-70
2022/02/19 08:51:39;;;;;;;3.83;1.60;;;26.00;65.00;;;;;;4141949;28;20073;-69
2022/02/19 08:54:01;;;;;;;3.35;1.65;;;26.00;64.90;;;;;;4125538;28;20094;-67
2022/02/19 08:56:24;;;;;;;3.58;1.60;;;26.10;64.90;;;;;;4124670;28;20068;-68
2022/02/19 08:58:47;;;;;;;3.20;1.38;;;26.10;65.00;;;;;;4143613;28;21905;-70
2022/02/19 09:01:09;;;;;;;2.05;1.42;;;26.10;64.90;;;;;;4139439;28;20037;-72
2022/02/19 09:03:32;;;;;;;2.25;1.30;;;26.10;65.00;;;;;;4134383;28;20231;-70
2022/02/19 09:05:55;;;;;;;3.45;1.50;;;26.10;65.20;;;;;;4127085;28;22113;-71
2022/02/19 09:08:17;;;;;;;1.85;1.30;;;26.10;65.10;;;;;;4153133;28;20043;-72
2022/02/19 09:10:40;;;;;;;5.95;1.73;;;26.20;65.20;;;;;;4142445;28;20040;-71
2022/02/19 09:13:04;;;;;;;3.38;1.48;;;26.20;65.50;;;;;;4141423;28;20032;-77
2022/02/19 09:15:27;;;;;;;3.70;1.40;;;26.20;64.90;;;;;;4128583;28;20045;-78
2022/02/19 09:17:50;;;;;;;2.40;1.10;;;26.20;64.80;;;;;;4143149;28;20043;-74
2022/02/19 09:20:14;;;;;;;4.00;1.38;;;26.20;64.70;;;;;;4129162;28;21946;-70
2022/02/19 09:22:38;;;;;;;3.50;1.42;;;26.30;64.50;;;;;;4144112;28;20122;-66
2022/02/19 09:25:01;;;;;;;3.60;1.17;;;26.30;64.40;;;;;;4123323;28;20496;-66
2022/02/19 09:27:24;;;;;;;1.77;0.95;;;26.20;64.10;;;;;;4131646;28;20061;-69
2022/02/19 09:29:47;;;;;;;3.00;1.35;;;26.20;63.90;;;;;;4141004;28;20045;-69
2022/02/19 09:32:10;;;;;;;1.75;1.35;;;26.20;63.70;;;;;;4125063;28;20025;-68
2022/02/19 09:34:32;;;;;;;4.40;1.50;;;26.20;63.10;;;;;;4146648;28;20041;-68
2022/02/19 09:36:55;;;;;;;4.18;1.50;;;26.20;62.60;;;;;;4129159;28;20041;-69
2022/02/19 09:39:19;;;;;;;4.73;1.90;;;26.10;62.10;;;;;;4138925;28;20043;-75
2022/02/19 09:41:45;;;;;;;;;;;26.10;62.00;;;;;;4144941;28;20368;-66
2022/02/19 09:44:07;;;;;;;3.88;1.75;;;26.10;62.00;;;;;;4138521;28;20741;-62
2022/02/19 09:46:32;;;;;;;3.45;1.60;;;26.10;61.90;;;;;;4139498;28;20086;-71
2022/02/19 09:48:55;;;;;;;6.00;1.98;;;26.10;61.70;;;;;;4147009;28;20115;-70
2022/02/19 09:51:17;;;;;;;4.73;2.00;;;26.10;61.60;;;;;;4138092;28;20139;-67
2022/02/19 09:53:40;;;;;;;4.68;2.00;;;26.10;61.60;;;;;;4121056;28;20533;-67
2022/02/19 09:56:03;;;;;;;6.60;2.10;;;26.00;61.50;;;;;;4145009;28;20040;-68
2022/02/19 09:58:28;;;;;;;5.35;1.90;;;26.10;61.50;;;;;;4123566;28;20456;-68
2022/02/19 10:00:53;;;;;;;4.65;1.52;;;26.00;61.40;;;;;;4140731;28;20048;-68
2022/02/19 10:03:26;;;;;;;5.15;2.00;;;26.00;61.40;;;;;;4146388;28;20125;-69
2022/02/19 10:05:49;;;;;;;3.17;1.90;;;26.00;61.30;;;;;;4108936;28;20184;-67
2022/02/19 10:08:12;;;;;;;4.38;1.60;;;26.00;61.30;;;;;;4113647;28;20042;-69
2022/02/19 10:10:37;;;;;;;3.87;1.57;;;26.00;61.20;;;;;;4103201;28;20046;-68
2022/02/19 10:12:59;;;;;;;4.97;1.95;;;26.00;61.20;;;;;;4112269;28;20113;-67
2022/02/19 10:15:23;;;;;;;3.20;1.40;;;26.00;61.20;;;;;;4112817;28;20112;-68
2022/02/19 10:17:45;;;;;;;2.42;1.42;;;26.00;61.20;;;;;;4106025;28;20049;-67
2022/02/19 10:20:14;;;;;;;4.15;1.55;;;25.90;61.20;;;;;;4109657;28;21700;-65
2022/02/19 10:22:45;;;;;;;3.75;1.52;;;25.90;61.10;;;;;;4109499;28;20128;-67
2022/02/19 10:25:21;;;;;;;5.43;1.70;;;25.90;61.10;;;;;;4114949;28;20088;-66
2022/02/19 10:27:56;;;;;;;3.03;1.10;;;25.90;61.00;;;;;;4107407;28;20049;-66
2022/02/19 10:30:29;;;;;;;5.43;1.88;;;25.90;61.00;;;;;;4106159;28;20899;-67
2022/02/19 10:33:04;;;;;;;4.33;1.70;;;25.90;61.30;;;;;;4116714;28;20045;-66
2022/02/19 10:35:35;;;;;;;3.75;1.30;;;25.90;61.00;;;;;;4107760;28;20115;-69
2022/02/19 10:38:01;;;;;;;4.22;1.52;;;25.80;61.00;;;;;;4109396;28;20029;-68
2022/02/19 10:40:42;;;;;;;5.35;1.38;;;25.80;60.90;;;;;;4109631;28;20038;-68
2022/02/19 10:43:08;;;;;;;3.08;1.35;;;25.80;61.00;;;;;;4105981;28;20125;-66
2022/02/19 10:45:33;;;;;;;5.53;1.48;;;25.80;61.00;;;;;;4114262;28;20033;-68
2022/02/19 10:48:11;;;;;;;6.07;1.65;;;25.80;61.00;;;;;;4105072;28;20043;-71
2022/02/19 10:50:34;;;;;;;3.17;0.98;;;25.80;61.00;;;;;;4107003;28;20057;-64
2022/02/19 10:52:57;;;;;;;3.50;1.23;;;25.80;61.00;;;;;;4112537;28;20045;-63
2022/02/19 10:55:23;;;;;;;3.58;1.30;;;25.80;61.10;;;;;;4114114;28;20729;-64
2022/02/19 10:57:47;;;;;;;4.20;1.35;;;25.70;61.20;;;;;;4112810;28;20045;-63
2022/02/19 11:00:11;;;;;;;1.92;0.80;;;25.80;61.50;;;;;;4104435;28;20044;-63
2022/02/19 11:02:35;;;;;;;4.43;1.08;;;25.80;61.60;;;;;;4114385;28;20983;-63
2022/02/19 11:04:57;;;;;;;1.73;1.00;;;25.70;61.70;;;;;;4132035;28;20052;-63
2022/02/19 11:07:20;;;;;;;2.15;0.77;;;25.80;61.80;;;;;;4123631;28;20036;-63
2022/02/19 11:09:43;;;;;;;2.25;1.02;;;25.80;61.90;;;;;;4146687;28;20127;-63
2022/02/19 11:12:06;;;;;;;2.47;0.90;;;25.80;62.00;;;;;;4123636;28;20036;-66
2022/02/19 11:14:29;;;;;;;4.55;1.05;;;25.80;62.10;;;;;;4139510;28;20522;-65
2022/02/19 11:16:53;;;;;;;1.30;0.60;;;25.80;62.20;;;;;;4145630;28;20044;-65
2022/02/19 11:19:16;;;;;;;2.40;0.60;;;25.80;62.30;;;;;;4140317;28;20039;-65
2022/02/19 11:21:39;;;;;;;2.88;0.63;;;25.80;62.40;;;;;;4139162;28;20139;-64
2022/02/19 11:24:04;;;;;;;2.58;0.77;;;25.80;62.50;;;;;;4131418;28;20052;-66
2022/02/19 11:26:26;;;;;;;5.07;1.05;;;25.80;62.50;;;;;;4139501;28;20036;-70
2022/02/19 11:28:50;;;;;;;2.83;0.60;;;25.90;62.60;;;;;;4126041;28;20140;-67
2022/02/19 11:31:14;;;;;;;5.70;0.98;;;25.90;62.60;;;;;;4144064;28;20470;-64
2022/02/19 11:33:39;;;;;;;2.55;0.60;;;25.90;62.70;;;;;;4136698;28;20082;-65
2022/02/19 11:36:07;;;;;;;4.72;1.00;;;25.80;62.60;;;;;;4128276;28;20219;-62
2022/02/19 11:38:32;;;;;;;2.28;0.40;;;25.90;62.70;;;;;;4138623;28;20041;-65
2022/02/19 11:40:57;;;;;;;1.30;0.60;;;25.90;62.80;;;;;;4141854;28;20071;-62
2022/02/19 11:43:42;;;;;;;1.67;0.40;;;25.90;62.80;;;;;;4132621;28;20092;-64
2022/02/19 11:46:16;;;;;;;;;;;25.90;62.80;;;;;;4147899;28;20051;-65
2022/02/19 11:48:40;;;;;;;2.05;0.55;;;25.90;62.90;;;;;;4129877;28;20031;-64
2022/02/19 11:51:16;;;;;;;1.90;0.50;;;25.90;62.90;;;;;;4144772;28;20048;-62
2022/02/19 11:53:39;;;;;;;2.38;0.82;;;25.90;62.90;;;;;;4132565;28;20063;-64
2022/02/19 11:56:02;;;;;;;1.75;0.40;;;25.90;62.90;;;;;;4140444;28;20575;-65
2022/02/19 11:58:25;;;;;;;1.90;0.73;;;25.90;63.30;;;;;;4124063;28;20037;-70
2022/02/19 12:00:49;;;;;;;2.87;0.70;;;25.90;62.90;;;;;;4130887;28;21130;-67
2022/02/19 12:03:25;;;;;;;0.63;0.47;;;25.90;62.70;;;;;;4128370;28;20286;-66
2022/02/19 12:06:16;;;;;;;1.02;0.47;;;25.90;62.80;;;;;;4142646;28;20048;-66
2022/02/19 12:08:52;;;;;;;1.75;0.85;;;26.00;62.90;;;;;;4141852;28;20114;-66
2022/02/19 12:11:20;;;;;;;2.83;0.68;;;25.90;62.90;;;;;;4149262;28;20528;-66
2022/02/19 12:13:53;;;;;;;1.05;0.60;;;26.00;63.00;;;;;;4137700;28;20093;-70
2022/02/19 12:16:31;;;;;;;1.92;0.85;;;26.00;63.10;;;;;;4136062;28;20041;-68
2022/02/19 12:18:56;;;;;;;0.68;0.45;;;26.00;63.00;;;;;;4144186;28;20361;-68
2022/02/19 12:21:37;;;;;;;1.80;0.50;;;26.00;63.00;;;;;;4147283;28;20062;-67
2022/02/19 12:24:25;;;;;;;3.15;0.50;;;26.00;62.90;;;;;;4150520;28;20048;-67
2022/02/19 12:27:05;;;;;;;1.35;0.57;;;26.00;62.80;;;;;;4146795;28;20121;-65
2022/02/19 12:29:35;;;;;;;0.90;0.52;;;26.10;63.00;;;;;;4150622;28;20098;-67
2022/02/19 12:32:10;;;;;;;1.55;0.55;;;26.00;62.90;;;;;;4129364;28;20108;-65
2022/02/19 12:34:38;;;;;;;1.63;0.40;;;26.10;62.90;;;;;;4144206;28;20040;-63
2022/02/19 12:37:02;;;;;;;1.63;0.40;;;26.10;62.90;;;;;;4148445;28;20044;-68
2022/02/19 12:39:30;;;;;;;0.47;0.47;;;26.10;62.90;;;;;;4148391;28;20201;-69